Time;durP1;ratioP1;P1;durP2;ratioP2;P2;SDS_P1;SDS_P2;PMS_P1;PMS_P2;Temp;Humidity;BMP_temperature;BMP_pressure;BME280_temperature;BME280_humidity;BME280_pressure;Samples;Min_cycle;Max_cycle;Signal;HPM_P1;HPM_P2
2021/05/04 00:01:31;;;;;;;22.57;16.83;;;7.30;98.30;;;;;;5090857;23;20500;-79
2021/05/04 00:03:32;;;;;;;22.63;20.23;;;7.40;98.30;;;;;;5089886;23;20459;-79
2021/05/04 00:05:34;;;;;;;22.47;18.47;;;7.40;98.30;;;;;;5090930;23;20925;-79
2021/05/04 00:07:36;;;;;;;21.37;16.80;;;7.40;98.30;;;;;;5097907;23;20789;-79
2021/05/04 00:09:38;;;;;;;21.83;16.90;;;7.40;98.30;;;;;;5088730;23;20458;-78
2021/05/04 00:11:40;;;;;;;20.80;17.70;;;7.30;98.30;;;;;;5097239;23;20529;-79
2021/05/04 00:13:43;;;;;;;20.03;16.73;;;7.30;98.30;;;;;;5097153;23;20517;-78
2021/05/04 00:15:45;;;;;;;21.17;16.30;;;7.40;98.30;;;;;;5089335;23;20451;-78
2021/05/04 00:17:47;;;;;;;22.33;16.90;;;7.40;98.30;;;;;;5095700;23;20971;-79
2021/05/04 00:19:50;;;;;;;20.20;16.57;;;7.40;98.30;;;;;;5088914;23;20466;-79
2021/05/04 00:21:52;;;;;;;21.47;16.30;;;7.40;98.30;;;;;;5090063;23;20515;-79
2021/05/04 00:23:54;;;;;;;20.43;17.13;;;7.40;98.30;;;;;;5091643;23;20429;-80
2021/05/04 00:25:56;;;;;;;21.20;18.03;;;7.50;98.30;;;;;;5092529;23;20914;-79
2021/05/04 00:27:58;;;;;;;20.43;18.33;;;7.50;98.30;;;;;;5091511;23;20459;-79
2021/05/04 00:30:00;;;;;;;20.83;17.30;;;7.60;98.30;;;;;;5091743;23;20769;-79
2021/05/04 00:32:02;;;;;;;19.77;15.53;;;7.50;98.30;;;;;;5091714;23;20435;-79
2021/05/04 00:34:04;;;;;;;19.40;15.97;;;7.60;98.30;;;;;;5099771;23;20458;-79
2021/05/04 00:36:06;;;;;;;19.40;15.93;;;7.50;98.30;;;;;;5099676;23;20444;-78
2021/05/04 00:38:08;;;;;;;18.07;15.40;;;7.60;98.30;;;;;;5091698;23;20494;-79
2021/05/04 00:40:12;;;;;;;16.80;14.90;;;7.60;98.30;;;;;;5090600;23;20455;-79
2021/05/04 00:42:14;;;;;;;19.87;16.10;;;7.60;98.30;;;;;;5098986;23;20421;-77
2021/05/04 00:44:15;;;;;;;17.67;15.00;;;7.70;98.30;;;;;;5097526;23;20539;-78
2021/05/04 00:46:18;;;;;;;18.20;14.80;;;7.70;98.30;;;;;;5091275;23;20465;-78
2021/05/04 00:48:21;;;;;;;19.93;13.80;;;7.60;98.30;;;;;;5090703;23;20458;-78
2021/05/04 00:50:23;;;;;;;16.90;15.10;;;7.70;98.30;;;;;;5091327;23;20832;-78
2021/05/04 00:52:26;;;;;;;15.93;14.23;;;7.70;98.30;;;;;;5092841;23;20678;-79
2021/05/04 00:54:28;;;;;;;19.67;13.83;;;7.60;98.30;;;;;;5093629;23;20438;-78
2021/05/04 00:56:31;;;;;;;17.90;14.57;;;7.70;98.30;;;;;;5095131;23;20456;-79
2021/05/04 00:58:34;;;;;;;19.40;13.80;;;7.70;98.30;;;;;;5102035;23;20455;-79
2021/05/04 01:00:37;;;;;;;16.00;14.30;;;7.80;98.30;;;;;;5092313;23;20435;-79
2021/05/04 01:02:41;;;;;;;17.80;13.87;;;7.80;98.30;;;;;;5092084;23;20464;-79
2021/05/04 01:04:44;;;;;;;15.33;13.70;;;7.70;98.30;;;;;;5100675;23;20431;-79
2021/05/04 01:06:46;;;;;;;15.13;13.60;;;7.70;98.30;;;;;;5093455;23;20429;-79
2021/05/04 01:08:47;;;;;;;18.80;14.10;;;7.80;98.30;;;;;;5093236;23;20426;-79
2021/05/04 01:10:50;;;;;;;15.77;13.53;;;7.90;98.30;;;;;;5101111;23;20525;-79
2021/05/04 01:12:52;;;;;;;16.77;13.10;;;7.90;98.30;;;;;;5092800;23;20429;-79
2021/05/04 01:14:53;;;;;;;15.67;13.50;;;7.80;98.30;;;;;;5092492;23;20450;-79
2021/05/04 01:16:55;;;;;;;15.70;13.07;;;7.80;98.30;;;;;;5088561;23;20516;-79
2021/05/04 01:18:58;;;;;;;14.47;12.97;;;7.80;98.30;;;;;;5091281;23;20458;-79
2021/05/04 01:21:01;;;;;;;16.27;13.63;;;7.80;98.30;;;;;;5092116;23;20957;-79
2021/05/04 01:23:03;;;;;;;15.03;13.43;;;7.80;98.30;;;;;;5094226;23;20454;-79
2021/05/04 01:25:07;;;;;;;14.63;13.13;;;7.80;98.30;;;;;;5099967;23;20429;-79
2021/05/04 01:27:09;;;;;;;16.00;13.53;;;7.80;98.30;;;;;;5091161;23;20455;-79
2021/05/04 01:29:12;;;;;;;16.30;13.90;;;7.90;98.30;;;;;;5089902;23;20453;-79
2021/05/04 01:31:14;;;;;;;17.53;13.67;;;7.90;98.30;;;;;;5098953;23;20421;-79
2021/05/04 01:33:16;;;;;;;15.43;13.30;;;7.90;98.30;;;;;;5090287;23;20458;-79
2021/05/04 01:35:18;;;;;;;16.03;13.77;;;7.90;98.30;;;;;;5091017;23;20834;-78
2021/05/04 01:37:20;;;;;;;15.10;13.47;;;7.90;98.30;;;;;;5092546;23;20463;-79
2021/05/04 01:39:36;;;;;;;15.77;13.90;;;7.80;98.30;;;;;;5100147;23;20466;-78
2021/05/04 01:41:39;;;;;;;19.40;14.47;;;7.70;98.30;;;;;;5093230;23;20451;-80
2021/05/04 01:43:41;;;;;;;16.47;13.63;;;7.80;98.30;;;;;;5092572;23;20465;-79
2021/05/04 01:45:43;;;;;;;14.80;12.50;;;7.80;98.30;;;;;;5093525;23;20521;-78
2021/05/04 01:47:45;;;;;;;16.57;13.33;;;7.80;98.30;;;;;;5093766;23;20447;-78
2021/05/04 01:49:47;;;;;;;14.17;12.67;;;7.80;98.30;;;;;;5097129;23;20464;-79
2021/05/04 01:51:49;;;;;;;15.40;12.97;;;7.70;98.30;;;;;;5094063;23;20496;-79
2021/05/04 01:53:51;;;;;;;14.40;12.90;;;7.80;98.30;;;;;;5098560;23;20728;-78
2021/05/04 01:55:53;;;;;;;18.53;13.20;;;7.80;98.30;;;;;;5090680;23;20451;-78
2021/05/04 01:57:55;;;;;;;14.90;13.37;;;7.70;98.30;;;;;;5089899;23;20468;-78
2021/05/04 01:59:57;;;;;;;18.20;12.87;;;7.80;98.30;;;;;;5090796;23;20427;-78
2021/05/04 02:01:59;;;;;;;14.40;12.63;;;7.70;98.30;;;;;;5090817;23;20434;-78
2021/05/04 02:04:01;;;;;;;14.13;12.03;;;7.80;98.30;;;;;;5091091;23;20452;-79
2021/05/04 02:06:03;;;;;;;16.30;13.43;;;7.70;98.30;;;;;;5091929;23;20425;-79
2021/05/04 02:08:06;;;;;;;14.80;12.60;;;7.80;98.30;;;;;;5091502;23;20926;-79
2021/05/04 02:10:11;;;;;;;13.17;11.77;;;7.70;98.30;;;;;;5100115;23;20469;-79
2021/05/04 02:12:12;;;;;;;14.73;12.47;;;7.70;98.30;;;;;;5091048;23;20462;-78
2021/05/04 02:14:14;;;;;;;14.10;12.67;;;7.80;98.30;;;;;;5099159;23;20919;-78
2021/05/04 02:16:16;;;;;;;16.70;13.43;;;7.80;98.30;;;;;;5092164;23;20459;-78
2021/05/04 02:18:18;;;;;;;13.90;11.83;;;7.80;98.30;;;;;;5100228;23;20461;-78
2021/05/04 02:20:20;;;;;;;13.67;12.23;;;7.70;98.30;;;;;;5091455;23;20463;-78
2021/05/04 02:22:22;;;;;;;17.03;12.23;;;7.70;98.30;;;;;;5090864;23;20436;-78
2021/05/04 02:24:24;;;;;;;16.80;13.37;;;7.70;98.30;;;;;;5091246;23;20437;-78
2021/05/04 02:26:26;;;;;;;13.03;11.77;;;7.70;98.30;;;;;;5091223;23;20437;-78
2021/05/04 02:28:28;;;;;;;15.27;12.90;;;7.70;98.30;;;;;;5091424;23;20907;-78
2021/05/04 02:30:30;;;;;;;13.10;11.40;;;7.70;98.30;;;;;;5099088;23;20429;-79
2021/05/04 02:32:35;;;;;;;14.20;11.60;;;7.60;98.30;;;;;;5091052;23;20778;-78
2021/05/04 02:34:37;;;;;;;13.27;11.53;;;7.70;98.30;;;;;;5090625;23;20547;-78
2021/05/04 02:36:39;;;;;;;15.43;11.23;;;7.70;98.30;;;;;;5089868;23;20792;-79
2021/05/04 02:38:41;;;;;;;12.63;11.10;;;7.60;98.30;;;;;;5098162;23;20764;-79
2021/05/04 02:40:42;;;;;;;13.77;11.53;;;7.70;98.30;;;;;;5091493;23;20748;-79
2021/05/04 02:42:45;;;;;;;15.07;12.97;;;7.70;98.30;;;;;;5091874;23;20440;-79
2021/05/04 02:44:47;;;;;;;13.73;12.23;;;7.60;98.30;;;;;;5092258;23;20437;-79
2021/05/04 02:46:49;;;;;;;13.63;12.03;;;7.60;98.30;;;;;;5092486;23;20528;-79
2021/05/04 02:48:51;;;;;;;12.83;11.53;;;7.50;98.30;;;;;;5091865;23;20457;-78
2021/05/04 02:50:54;;;;;;;12.73;11.37;;;7.40;98.30;;;;;;5099949;23;20716;-78
2021/05/04 02:52:56;;;;;;;12.67;11.10;;;7.50;98.30;;;;;;5097954;23;20436;-78
2021/05/04 02:54:58;;;;;;;13.10;11.63;;;7.40;98.30;;;;;;5091754;23;20426;-78
2021/05/04 02:57:00;;;;;;;12.37;11.07;;;7.40;98.30;;;;;;5092997;23;20462;-79
2021/05/04 02:59:03;;;;;;;12.67;11.37;;;7.40;98.30;;;;;;5100509;23;20813;-78
2021/05/04 03:01:06;;;;;;;14.57;11.07;;;7.50;98.30;;;;;;5099805;23;20455;-78
2021/05/04 03:03:10;;;;;;;12.00;10.80;;;7.60;98.30;;;;;;5091676;23;20683;-78
2021/05/04 03:05:12;;;;;;;13.57;11.53;;;7.60;98.30;;;;;;5091814;23;20437;-79
2021/05/04 03:07:14;;;;;;;11.07;9.87;;;7.70;98.30;;;;;;5092692;23;21326;-79
2021/05/04 03:09:17;;;;;;;12.63;10.53;;;7.70;98.30;;;;;;5099761;23;20455;-79
2021/05/04 03:11:19;;;;;;;12.60;10.37;;;7.70;98.30;;;;;;5099837;23;20429;-79
2021/05/04 03:13:25;;;;;;;10.73;9.60;;;7.70;98.30;;;;;;5091768;23;20467;-78
2021/05/04 03:15:27;;;;;;;12.03;10.83;;;7.70;98.30;;;;;;5092923;23;20455;-79
2021/05/04 03:17:29;;;;;;;12.43;10.63;;;7.70;98.30;;;;;;5099797;23;20954;-78
2021/05/04 03:19:31;;;;;;;10.97;9.87;;;7.80;98.30;;;;;;5090294;23;20429;-78
2021/05/04 03:21:33;;;;;;;10.43;9.33;;;7.70;98.30;;;;;;5090360;23;20433;-78
2021/05/04 03:23:35;;;;;;;11.33;10.00;;;7.70;98.30;;;;;;5090189;23;20928;-78
2021/05/04 03:25:37;;;;;;;11.20;10.00;;;7.80;98.30;;;;;;5100097;23;20489;-79
2021/05/04 03:27:39;;;;;;;11.80;9.80;;;7.80;98.30;;;;;;5091589;23;20740;-79
2021/05/04 03:29:41;;;;;;;12.33;11.03;;;7.90;98.30;;;;;;5090195;23;21069;-79
2021/05/04 03:31:43;;;;;;;11.83;9.93;;;7.90;98.30;;;;;;5098432;23;20429;-78
2021/05/04 03:36:03;;;;;;;10.30;9.20;;;8.00;98.30;;;;;;5089789;23;20450;-80
2021/05/04 03:38:05;;;;;;;10.10;8.73;;;8.00;98.30;;;;;;5097212;23;20461;-80
2021/05/04 03:40:08;;;;;;;9.80;8.80;;;8.00;98.30;;;;;;5089860;23;20436;-80
2021/05/04 03:42:10;;;;;;;10.50;9.40;;;8.00;98.30;;;;;;5089499;23;20441;-80
2021/05/04 03:44:12;;;;;;;10.63;8.80;;;8.00;98.30;;;;;;5089471;23;20429;-80
2021/05/04 03:46:13;;;;;;;11.10;9.03;;;8.00;98.30;;;;;;5097527;23;20433;-80
2021/05/04 03:48:16;;;;;;;9.83;8.83;;;8.00;98.30;;;;;;5088759;23;20516;-80
2021/05/04 03:50:21;;;;;;;9.40;8.50;;;7.90;98.30;;;;;;5089953;23;20956;-79
2021/05/04 03:52:23;;;;;;;11.33;8.77;;;8.00;98.30;;;;;;5090499;23;20738;-79
2021/05/04 03:54:25;;;;;;;10.13;9.03;;;8.00;98.30;;;;;;5090220;23;20497;-79
2021/05/04 03:56:27;;;;;;;11.00;9.27;;;8.00;98.30;;;;;;5090380;23;20437;-80
2021/05/04 03:58:28;;;;;;;10.63;8.47;;;8.00;98.30;;;;;;5089090;23;20429;-79
2021/05/04 04:00:30;;;;;;;12.17;8.70;;;8.10;98.30;;;;;;5089070;23;20509;-79
2021/05/04 04:02:32;;;;;;;8.83;7.93;;;8.10;98.30;;;;;;5088646;23;20525;-80
2021/05/04 04:04:35;;;;;;;8.77;7.50;;;8.20;98.30;;;;;;5089458;23;20978;-79
2021/05/04 04:06:37;;;;;;;9.40;7.83;;;8.20;98.30;;;;;;5088592;23;20842;-79
2021/05/04 04:08:38;;;;;;;8.30;7.50;;;8.20;98.30;;;;;;5088416;23;20957;-79
2021/05/04 04:10:41;;;;;;;7.93;7.13;;;8.30;98.30;;;;;;5089283;23;20436;-80
2021/05/04 04:12:43;;;;;;;12.90;8.17;;;8.30;98.30;;;;;;5098875;23;20747;-79
2021/05/04 04:14:45;;;;;;;10.60;7.53;;;8.30;98.30;;;;;;5098228;23;20785;-80
2021/05/04 04:16:47;;;;;;;8.80;7.90;;;8.30;98.30;;;;;;5090101;23;20478;-80
2021/05/04 04:18:49;;;;;;;8.33;6.93;;;8.40;98.30;;;;;;5088840;23;20537;-80
2021/05/04 04:20:52;;;;;;;8.97;7.40;;;8.30;98.30;;;;;;5090099;23;20513;-80
2021/05/04 04:22:54;;;;;;;8.03;7.23;;;8.30;98.30;;;;;;5095962;23;20446;-80
2021/05/04 04:24:56;;;;;;;9.60;7.73;;;8.40;98.30;;;;;;5088737;23;20469;-80
2021/05/04 04:26:58;;;;;;;7.40;6.27;;;8.30;98.30;;;;;;5089652;23;20450;-80
2021/05/04 04:29:00;;;;;;;12.70;7.17;;;8.50;98.30;;;;;;5089439;23;20461;-80
2021/05/04 04:31:02;;;;;;;8.57;7.70;;;8.50;98.30;;;;;;5089262;23;20429;-80
2021/05/04 04:33:05;;;;;;;10.03;7.70;;;8.50;98.30;;;;;;5088813;23;20883;-80
2021/05/04 04:35:08;;;;;;;7.70;6.90;;;8.50;98.30;;;;;;5088926;23;20461;-80
2021/05/04 04:37:10;;;;;;;8.53;6.90;;;8.50;98.30;;;;;;5089274;23;20459;-81
2021/05/04 04:39:13;;;;;;;8.40;7.50;;;8.50;98.30;;;;;;5088574;23;20429;-79
2021/05/04 04:41:15;;;;;;;11.30;7.43;;;8.50;98.30;;;;;;5089740;23;20439;-80
2021/05/04 04:43:17;;;;;;;7.70;6.87;;;8.50;98.30;;;;;;5088684;23;20860;-80
2021/05/04 04:45:19;;;;;;;7.80;7.00;;;8.50;98.30;;;;;;5089324;23;20462;-80
2021/05/04 04:47:20;;;;;;;8.00;6.67;;;8.50;98.30;;;;;;5089324;23;20461;-81
2021/05/04 04:49:23;;;;;;;7.43;6.73;;;8.50;98.30;;;;;;5096917;23;20430;-80
2021/05/04 04:51:25;;;;;;;8.30;6.67;;;8.50;98.30;;;;;;5089297;23;20763;-80
2021/05/04 04:53:27;;;;;;;7.13;6.20;;;8.50;98.30;;;;;;5089206;23;20458;-80
2021/05/04 04:55:29;;;;;;;7.60;6.80;;;8.50;98.30;;;;;;5088169;23;20425;-80
2021/05/04 04:57:32;;;;;;;7.90;7.10;;;8.50;98.30;;;;;;5099265;23;20963;-80
2021/05/04 04:59:35;;;;;;;9.33;7.10;;;8.50;98.30;;;;;;5089565;23;20972;-81
2021/05/04 05:01:37;;;;;;;8.03;7.23;;;8.50;98.30;;;;;;5088592;23;20459;-80
2021/05/04 05:03:39;;;;;;;7.80;7.00;;;8.50;98.30;;;;;;5096017;23;20433;-81
2021/05/04 05:05:41;;;;;;;7.00;6.30;;;8.50;98.30;;;;;;5089875;23;20461;-80
2021/05/04 05:07:43;;;;;;;8.20;7.40;;;8.50;98.30;;;;;;5090013;23;20461;-80
2021/05/04 05:09:46;;;;;;;8.00;7.20;;;8.60;98.30;;;;;;5091804;23;20465;-80
2021/05/04 05:11:47;;;;;;;11.10;7.43;;;8.60;98.30;;;;;;5089816;23;20458;-80
2021/05/04 05:13:49;;;;;;;7.67;6.87;;;8.60;98.30;;;;;;5098010;23;20463;-82
2021/05/04 05:15:51;;;;;;;7.67;6.90;;;8.60;98.30;;;;;;5099192;23;20499;-81
2021/05/04 05:17:53;;;;;;;7.80;7.00;;;8.60;98.30;;;;;;5090143;23;20891;-80
2021/05/04 05:19:56;;;;;;;9.33;7.60;;;8.60;98.30;;;;;;5090547;23;20548;-80
2021/05/04 05:21:58;;;;;;;8.73;7.57;;;8.50;98.30;;;;;;5090448;23;20437;-80
2021/05/04 05:24:01;;;;;;;7.83;6.50;;;8.50;98.30;;;;;;5090154;23;20968;-82
2021/05/04 05:26:04;;;;;;;7.60;6.80;;;8.50;98.30;;;;;;5091419;23;20455;-80
2021/05/04 05:28:06;;;;;;;8.27;7.43;;;8.50;98.30;;;;;;5090984;23;20835;-81
2021/05/04 05:30:09;;;;;;;10.47;8.57;;;8.40;98.30;;;;;;5090351;23;20786;-81
2021/05/04 05:32:11;;;;;;;8.70;7.80;;;8.40;98.30;;;;;;5098031;23;20945;-81
2021/05/04 05:34:13;;;;;;;8.90;8.00;;;8.40;98.30;;;;;;5097862;23;20470;-81
2021/05/04 05:36:15;;;;;;;9.83;7.20;;;8.40;98.30;;;;;;5099125;23;20465;-80
2021/05/04 05:38:17;;;;;;;8.93;7.20;;;8.30;98.30;;;;;;5090969;23;20520;-81
2021/05/04 05:40:22;;;;;;;9.20;7.87;;;8.30;98.30;;;;;;5090869;23;20509;-81
2021/05/04 05:42:25;;;;;;;9.90;8.43;;;8.30;98.30;;;;;;5090098;23;20433;-81
2021/05/04 05:44:26;;;;;;;10.07;7.97;;;8.20;98.30;;;;;;5090342;23;20426;-80
2021/05/04 05:46:30;;;;;;;9.60;8.20;;;8.30;98.30;;;;;;5098159;23;20918;-80
2021/05/04 05:48:32;;;;;;;11.57;8.63;;;8.30;98.30;;;;;;5089163;23;20429;-80
2021/05/04 05:50:34;;;;;;;10.13;8.13;;;8.20;98.30;;;;;;5090070;23;20462;-80
2021/05/04 05:52:36;;;;;;;9.67;8.67;;;8.20;98.30;;;;;;5089622;23;20476;-80
2021/05/04 05:54:38;;;;;;;11.17;8.37;;;8.20;98.30;;;;;;5090139;23;20537;-80
2021/05/04 05:56:40;;;;;;;11.80;9.00;;;8.20;98.30;;;;;;5090307;23;20772;-80
2021/05/04 05:58:43;;;;;;;13.20;10.37;;;8.10;98.30;;;;;;5089627;23;20454;-80
2021/05/04 06:00:47;;;;;;;12.60;9.37;;;8.10;98.30;;;;;;5089700;23;20459;-80
2021/05/04 06:02:50;;;;;;;9.83;8.87;;;8.10;98.30;;;;;;5089333;23;20555;-81
2021/05/04 06:04:52;;;;;;;10.10;9.10;;;8.10;98.30;;;;;;5090694;23;20986;-81
2021/05/04 06:06:54;;;;;;;12.40;8.43;;;8.10;98.30;;;;;;5091623;23;20780;-80
2021/05/04 06:08:58;;;;;;;9.60;8.60;;;8.10;98.30;;;;;;5091249;23;20425;-80
2021/05/04 06:11:00;;;;;;;11.50;7.90;;;8.10;98.30;;;;;;5091508;23;20755;-81
2021/05/04 06:13:05;;;;;;;11.00;8.77;;;8.10;98.30;;;;;;5099838;23;20995;-81
2021/05/04 06:15:10;;;;;;;9.30;7.90;;;8.10;98.30;;;;;;5091045;23;21024;-82
2021/05/04 06:17:12;;;;;;;9.50;7.47;;;8.10;98.30;;;;;;5091399;23;20724;-80
2021/05/04 06:19:14;;;;;;;8.17;7.37;;;8.10;98.30;;;;;;5090054;23;20467;-80
2021/05/04 06:21:17;;;;;;;10.10;8.93;;;8.10;98.30;;;;;;5098776;23;20451;-80
2021/05/04 06:23:19;;;;;;;8.27;7.27;;;8.10;98.30;;;;;;5090264;23;20432;-80
2021/05/04 06:25:21;;;;;;;8.10;7.30;;;8.20;98.30;;;;;;5098379;23;20462;-80
2021/05/04 06:27:23;;;;;;;8.03;7.20;;;8.20;98.30;;;;;;5090992;23;20451;-80
2021/05/04 06:29:25;;;;;;;10.00;7.70;;;8.20;98.30;;;;;;5099410;23;20534;-80
2021/05/04 06:31:28;;;;;;;9.00;7.50;;;8.20;98.30;;;;;;5099079;23;20559;-81
2021/05/04 06:33:30;;;;;;;9.10;7.60;;;8.20;98.30;;;;;;5092344;23;21167;-80
2021/05/04 06:35:37;;;;;;;10.30;8.00;;;8.20;98.30;;;;;;5093210;23;20458;-80
2021/05/04 06:37:38;;;;;;;8.60;7.70;;;8.20;98.30;;;;;;5093749;23;20459;-80
2021/05/04 06:39:40;;;;;;;9.17;8.27;;;8.20;98.30;;;;;;5101184;23;20429;-80
2021/05/04 06:41:42;;;;;;;8.00;7.27;;;8.20;98.30;;;;;;5094891;23;20477;-81
2021/05/04 06:43:44;;;;;;;9.83;8.07;;;8.20;98.30;;;;;;5110864;23;20470;-80
2021/05/04 06:45:48;;;;;;;9.70;8.70;;;8.30;98.30;;;;;;5102633;23;20796;-80
2021/05/04 06:47:51;;;;;;;12.00;8.43;;;8.20;98.30;;;;;;5110160;23;20461;-79
2021/05/04 06:49:53;;;;;;;8.57;7.77;;;8.30;98.30;;;;;;5099646;23;20516;-81
2021/05/04 06:51:54;;;;;;;11.57;7.20;;;8.30;98.30;;;;;;5106849;23;20425;-81
2021/05/04 06:53:56;;;;;;;9.57;8.57;;;8.30;98.30;;;;;;5106417;23;20454;-80
2021/05/04 06:55:58;;;;;;;9.87;8.87;;;8.40;98.30;;;;;;5093789;23;20922;-80
2021/05/04 06:58:00;;;;;;;9.53;7.70;;;8.40;98.30;;;;;;5093242;23;20756;-80
2021/05/04 07:00:07;;;;;;;9.83;7.30;;;8.40;98.30;;;;;;5102555;23;20445;-80
2021/05/04 07:02:09;;;;;;;7.80;7.00;;;8.50;98.30;;;;;;5102621;23;20429;-80
2021/05/04 07:04:13;;;;;;;8.07;7.20;;;8.50;98.30;;;;;;5094384;23;20434;-80
2021/05/04 07:06:15;;;;;;;9.07;8.00;;;8.60;98.30;;;;;;5102250;23;20413;-77
2021/05/04 07:08:17;;;;;;;12.63;7.20;;;8.60;98.30;;;;;;5112911;23;20449;-77
2021/05/04 07:10:19;;;;;;;8.60;7.10;;;8.60;98.30;;;;;;5107388;23;20514;-78
2021/05/04 07:12:21;;;;;;;14.30;7.90;;;8.80;98.30;;;;;;5109916;23;20417;-77
2021/05/04 07:14:23;;;;;;;8.43;7.40;;;8.80;98.30;;;;;;5117446;23;20406;-80
2021/05/04 07:16:25;;;;;;;8.17;6.70;;;8.80;98.30;;;;;;5093149;23;20425;-80
2021/05/04 07:18:27;;;;;;;7.10;5.83;;;8.80;98.30;;;;;;5101072;23;20455;-80
2021/05/04 07:20:30;;;;;;;8.73;7.50;;;8.90;98.30;;;;;;5091418;23;20964;-80
2021/05/04 07:22:34;;;;;;;7.43;6.67;;;8.90;98.30;;;;;;5100922;23;20457;-80
2021/05/04 07:24:36;;;;;;;8.43;6.30;;;8.90;98.30;;;;;;5100712;23;20477;-81
2021/05/04 07:26:39;;;;;;;10.20;6.37;;;9.00;98.30;;;;;;5089918;23;20470;-81
2021/05/04 07:28:45;;;;;;;6.77;6.10;;;9.00;98.30;;;;;;5088793;23;20434;-80
2021/05/04 07:30:47;;;;;;;9.30;7.70;;;8.90;98.30;;;;;;5089489;23;20533;-78
2021/05/04 07:32:48;;;;;;;7.97;6.40;;;8.80;98.30;;;;;;5097750;23;20459;-78
2021/05/04 07:34:50;;;;;;;7.30;6.23;;;8.80;98.30;;;;;;5097549;23;20446;-80
2021/05/04 07:36:53;;;;;;;7.33;6.07;;;8.80;98.30;;;;;;5089485;23;20455;-80
2021/05/04 07:38:55;;;;;;;7.10;6.50;;;8.80;98.30;;;;;;5089521;23;20474;-79
2021/05/04 07:40:57;;;;;;;6.43;5.80;;;8.80;98.30;;;;;;5090229;23;20462;-79
2021/05/04 07:42:59;;;;;;;8.50;6.17;;;8.90;98.30;;;;;;5089992;23;20458;-80
2021/05/04 07:45:01;;;;;;;7.53;6.80;;;8.90;98.30;;;;;;5089064;23;20455;-80
2021/05/04 07:47:05;;;;;;;7.10;6.30;;;9.00;98.30;;;;;;5097193;23;20451;-79
2021/05/04 07:49:12;;;;;;;6.40;5.37;;;9.00;98.30;;;;;;5097169;23;20458;-80
2021/05/04 07:51:14;;;;;;;6.30;5.70;;;9.00;98.30;;;;;;5089955;23;20477;-81
2021/05/04 07:53:17;;;;;;;6.83;6.13;;;9.00;98.30;;;;;;5097721;23;20520;-80
2021/05/04 07:55:19;;;;;;;5.67;5.17;;;9.10;98.30;;;;;;5088711;23;20867;-80
2021/05/04 07:57:21;;;;;;;6.13;5.53;;;9.10;98.30;;;;;;5088914;23;21028;-81
2021/05/04 07:59:23;;;;;;;9.37;7.33;;;9.10;98.30;;;;;;5089445;23;20492;-80
2021/05/04 08:01:25;;;;;;;6.10;5.50;;;9.20;98.30;;;;;;5089478;23;20545;-79
2021/05/04 08:03:28;;;;;;;6.53;5.83;;;9.20;98.30;;;;;;5090047;23;20542;-79
2021/05/04 08:05:31;;;;;;;6.43;5.40;;;9.20;98.30;;;;;;5089389;23;20841;-80
2021/05/04 08:07:32;;;;;;;6.60;5.20;;;9.20;98.30;;;;;;5089668;23;20974;-81
2021/05/04 08:09:35;;;;;;;5.97;4.90;;;9.30;98.30;;;;;;5089728;23;20470;-80
2021/05/04 08:11:37;;;;;;;7.13;5.37;;;9.30;98.30;;;;;;5089479;23;20458;-80
2021/05/04 08:13:39;;;;;;;5.90;5.30;;;9.30;98.30;;;;;;5097635;23;20442;-81
2021/05/04 08:15:41;;;;;;;5.33;4.90;;;9.20;98.30;;;;;;5088644;23;20454;-79
2021/05/04 08:17:48;;;;;;;5.87;5.23;;;9.20;98.30;;;;;;5098011;23;20454;-81
2021/05/04 08:19:50;;;;;;;5.23;4.77;;;9.20;98.30;;;;;;5089356;23;20505;-80
2021/05/04 08:21:52;;;;;;;5.70;5.03;;;9.30;98.30;;;;;;5089467;23;20437;-80
2021/05/04 08:23:54;;;;;;;5.70;5.10;;;9.30;98.30;;;;;;5089862;23;20637;-80
2021/05/04 08:25:57;;;;;;;5.13;4.63;;;9.30;98.30;;;;;;5090127;23;20451;-79
2021/05/04 08:27:59;;;;;;;7.97;5.20;;;9.40;98.30;;;;;;5098292;23;20426;-80
2021/05/04 08:30:00;;;;;;;5.47;4.20;;;9.40;98.30;;;;;;5089512;23;20433;-80
2021/05/04 08:32:03;;;;;;;7.77;5.20;;;9.50;98.30;;;;;;5089737;23;20454;-82
2021/05/04 08:34:05;;;;;;;5.67;5.17;;;9.60;98.30;;;;;;5089759;23;20455;-81
2021/05/04 08:36:07;;;;;;;5.07;4.60;;;9.60;98.30;;;;;;5089485;23;20860;-81
2021/05/04 08:38:10;;;;;;;8.00;5.10;;;9.70;98.30;;;;;;5089362;23;20432;-81
2021/05/04 08:40:13;;;;;;;4.77;4.27;;;9.80;98.30;;;;;;5088876;23;21014;-80
2021/05/04 08:42:16;;;;;;;4.87;4.40;;;9.80;98.30;;;;;;5088388;23;21047;-80
2021/05/04 08:44:21;;;;;;;5.17;4.77;;;9.70;98.30;;;;;;5089670;23;20464;-80
2021/05/04 08:46:24;;;;;;;5.87;5.30;;;9.80;98.30;;;;;;5089677;23;20465;-81
2021/05/04 08:48:28;;;;;;;4.33;3.93;;;9.90;98.30;;;;;;5089688;23;20459;-81
2021/05/04 08:50:34;;;;;;;7.43;4.60;;;9.90;98.30;;;;;;5098667;23;21045;-81
2021/05/04 08:52:37;;;;;;;5.27;4.77;;;10.00;98.30;;;;;;5090696;23;20801;-81
2021/05/04 08:54:42;;;;;;;7.73;4.90;;;10.00;98.30;;;;;;5097995;23;20429;-81
2021/05/04 08:56:44;;;;;;;7.80;4.90;;;10.10;98.30;;;;;;5089917;23;21030;-80
2021/05/04 08:58:47;;;;;;;5.00;4.50;;;10.00;98.30;;;;;;5098112;23;20455;-80
2021/05/04 09:00:51;;;;;;;4.50;4.00;;;10.00;98.30;;;;;;5098232;23;20457;-80
2021/05/04 09:03:03;;;;;;;4.10;3.80;;;10.10;98.30;;;;;;5097944;23;20454;-81
2021/05/04 09:05:16;;;;;;;4.83;4.17;;;10.00;98.30;;;;;;5098127;23;21003;-80
2021/05/04 09:07:22;;;;;;;5.00;4.30;;;10.10;98.30;;;;;;5090306;23;20462;-80
2021/05/04 09:09:28;;;;;;;3.70;3.40;;;10.10;98.30;;;;;;5098310;23;20457;-80
2021/05/04 09:11:38;;;;;;;4.53;4.17;;;10.10;98.30;;;;;;5090565;23;20967;-81
2021/05/04 09:13:51;;;;;;;4.53;4.13;;;10.10;98.30;;;;;;5090344;23;20465;-81
2021/05/04 09:21:08;;;;;;;3.90;3.43;;;10.20;98.30;;;;;;4989430;23;20426;-80
2021/05/04 09:23:10;;;;;;;4.27;3.70;;;10.20;98.30;;;;;;5060845;23;20541;-81
2021/05/04 09:25:33;;;;;;;3.80;3.40;;;10.30;98.30;;;;;;5098558;23;20474;-80
2021/05/04 09:27:35;;;;;;;3.90;3.50;;;10.30;98.30;;;;;;5098943;23;20443;-80
2021/05/04 09:29:40;;;;;;;5.30;4.20;;;10.30;98.30;;;;;;5098781;23;20454;-81
2021/05/04 09:31:42;;;;;;;5.30;4.37;;;10.10;98.30;;;;;;5098795;23;20454;-81
2021/05/04 09:33:45;;;;;;;5.50;4.10;;;9.70;98.30;;;;;;5091456;23;20518;-80
2021/05/04 09:35:47;;;;;;;7.10;4.90;;;9.50;98.30;;;;;;5091283;23;20511;-80
2021/05/04 09:37:49;;;;;;;6.17;5.63;;;9.30;98.30;;;;;;5090984;23;20443;-80
2021/05/04 09:39:51;;;;;;;7.40;4.90;;;9.30;98.30;;;;;;5099349;23;20433;-80
2021/05/04 09:41:53;;;;;;;4.53;4.10;;;9.20;98.30;;;;;;5090563;23;20459;-79
2021/05/04 09:43:55;;;;;;;7.00;5.17;;;9.30;98.30;;;;;;5100125;23;20447;-81
2021/05/04 09:45:59;;;;;;;5.20;4.70;;;9.30;98.30;;;;;;5090010;23;20465;-80
2021/05/04 09:48:09;;;;;;;5.67;5.10;;;9.30;98.30;;;;;;5098050;23;20788;-80
2021/05/04 09:50:11;;;;;;;7.63;5.33;;;9.30;98.30;;;;;;5098151;23;21007;-80
2021/05/04 09:52:22;;;;;;;5.90;5.40;;;9.30;98.30;;;;;;5098188;23;20474;-81
2021/05/04 09:54:25;;;;;;;6.93;5.10;;;9.40;98.30;;;;;;5098617;23;20538;-81
2021/05/04 09:56:31;;;;;;;5.70;5.20;;;9.40;98.30;;;;;;5090269;23;20450;-80
2021/05/04 09:58:35;;;;;;;6.80;5.07;;;9.40;98.30;;;;;;5098765;23;20429;-80
2021/05/04 10:00:37;;;;;;;4.57;4.17;;;9.40;98.30;;;;;;5091574;23;21023;-80
2021/05/04 10:02:41;;;;;;;4.80;4.40;;;9.40;98.30;;;;;;5091523;23;20433;-80
2021/05/04 10:04:43;;;;;;;6.23;5.37;;;9.40;98.30;;;;;;5100270;23;20503;-79
2021/05/04 10:06:45;;;;;;;6.17;4.23;;;9.50;98.30;;;;;;5090328;23;21050;-80
2021/05/04 10:08:49;;;;;;;5.80;4.93;;;9.50;98.30;;;;;;5098047;23;20458;-80
2021/05/04 10:10:51;;;;;;;4.83;3.53;;;9.60;98.30;;;;;;5090475;23;21061;-80
2021/05/04 10:12:53;;;;;;;4.87;4.20;;;9.60;98.30;;;;;;5098385;23;20824;-81
2021/05/04 10:14:58;;;;;;;4.10;3.70;;;9.70;98.30;;;;;;5089667;23;20470;-81
2021/05/04 10:17:00;;;;;;;4.63;4.23;;;9.70;98.30;;;;;;5098929;23;20443;-80
2021/05/04 10:19:05;;;;;;;4.40;4.00;;;9.70;98.30;;;;;;5089698;23;20747;-80
2021/05/04 10:21:08;;;;;;;5.23;4.50;;;9.80;98.30;;;;;;5089350;23;20432;-80
2021/05/04 10:23:12;;;;;;;5.40;3.93;;;9.90;98.30;;;;;;5089342;23;20429;-80
2021/05/04 10:25:21;;;;;;;4.20;3.80;;;9.90;98.30;;;;;;5089219;23;20439;-80
2021/05/04 10:27:25;;;;;;;4.30;3.93;;;9.90;98.30;;;;;;5089946;23;20967;-81
2021/05/04 10:29:27;;;;;;;4.60;3.93;;;10.00;98.30;;;;;;5094170;23;20432;-81
2021/05/04 10:31:37;;;;;;;4.33;3.93;;;10.10;98.30;;;;;;5094882;23;20464;-81
2021/05/04 10:33:41;;;;;;;4.00;3.70;;;10.10;98.30;;;;;;5102722;23;20452;-81
2021/05/04 10:35:46;;;;;;;4.23;3.83;;;10.10;98.30;;;;;;5101700;23;20552;-81
2021/05/04 10:37:55;;;;;;;4.73;4.30;;;10.10;98.30;;;;;;5102919;23;21054;-81
2021/05/04 10:39:57;;;;;;;8.13;4.67;;;10.00;98.30;;;;;;5102623;23;20727;-82
2021/05/04 10:42:00;;;;;;;5.00;4.57;;;9.90;98.30;;;;;;5094803;23;20537;-81
2021/05/04 10:44:04;;;;;;;5.40;4.70;;;9.70;98.30;;;;;;5100510;23;20469;-78
2021/05/04 10:46:25;;;;;;;5.00;4.50;;;9.50;98.30;;;;;;5102690;23;20462;-80
2021/05/04 10:48:38;;;;;;;5.47;5.00;;;9.30;98.30;;;;;;5101080;23;20458;-82